createdAt,value
2018-04-06T00:01:44.410Z,101871.45
2018-04-06T00:04:19.662Z,101880.77
2018-04-06T00:06:54.150Z,101884.37
2018-04-06T00:09:29.134Z,101885.27
2018-04-06T00:12:04.615Z,101884.50
2018-04-06T00:14:39.086Z,101886.20
2018-04-06T00:17:14.835Z,101889.30
2018-04-06T00:19:49.719Z,101891.49
2018-04-06T00:22:24.691Z,101891.09
2018-04-06T00:24:59.669Z,101895.53
2018-04-06T00:27:34.498Z,101885.89
2018-04-06T00:30:09.766Z,101887.31
2018-04-06T00:32:44.360Z,101890.94
2018-04-06T00:35:19.763Z,101890.05
2018-04-06T00:37:54.792Z,101882.91
2018-04-06T00:40:29.753Z,101885.95
2018-04-06T00:43:04.813Z,101893.12
2018-04-06T00:45:39.856Z,101889.92
2018-04-06T00:48:15.009Z,101896.55
2018-04-06T00:50:49.846Z,101894.28
2018-04-06T00:53:35.974Z,101909.13
2018-04-06T00:56:10.706Z,101901.82
2018-04-06T00:58:45.749Z,101903.67
2018-04-06T01:01:20.951Z,101905.89
2018-04-06T01:03:56.306Z,101905.41
2018-04-06T01:06:30.925Z,101913.33
2018-04-06T01:09:06.815Z,101916.83
2018-04-06T01:11:41.242Z,101911.14
2018-04-06T01:14:16.258Z,101913.84
2018-04-06T01:16:51.143Z,101903.63
2018-04-06T01:19:25.623Z,101911.70
2018-04-06T01:22:00.839Z,101903.73
2018-04-06T01:24:35.831Z,101905.16
2018-04-06T01:27:11.076Z,101902.55
2018-04-06T01:29:45.991Z,101900.25
2018-04-06T01:32:21.071Z,101902.03
2018-04-06T01:34:56.178Z,101910.02
2018-04-06T01:37:30.947Z,101910.88
2018-04-06T01:40:07.165Z,101907.66
2018-04-06T01:42:42.133Z,101909.88
2018-04-06T01:45:16.862Z,101905.50
2018-04-06T01:47:51.747Z,101919.80
2018-04-06T01:50:26.855Z,101913.53
2018-04-06T01:53:01.865Z,101908.97
2018-04-06T01:55:37.017Z,101912.62
2018-04-06T01:58:12.106Z,101912.48
2018-04-06T02:00:47.002Z,101920.95
2018-04-06T02:03:21.983Z,101914.20
2018-04-06T02:05:56.999Z,101918.37
2018-04-06T02:08:31.968Z,101916.58
2018-04-06T02:11:06.971Z,101923.79
2018-04-06T02:13:41.890Z,101918.14
2018-04-06T02:16:17.093Z,101916.38
2018-04-06T02:18:51.865Z,101924.77
2018-04-06T02:21:26.890Z,101924.74
2018-04-06T02:24:01.877Z,101923.89
2018-04-06T02:26:36.874Z,101925.70
2018-04-06T02:29:11.933Z,101919.57
2018-04-06T02:31:46.309Z,101912.98
2018-04-06T02:34:21.151Z,101915.22
2018-04-06T02:36:56.265Z,101917.99
2018-04-06T02:39:31.376Z,101919.84
2018-04-06T02:42:07.278Z,101924.41
2018-04-06T02:44:42.464Z,101922.78
2018-04-06T02:47:17.439Z,101908.09
2018-04-06T02:49:52.953Z,101928.39
2018-04-06T02:52:27.953Z,101921.87
2018-04-06T02:55:03.043Z,101930.00
2018-04-06T02:57:38.039Z,101923.02
2018-04-06T03:00:13.212Z,101918.36
2018-04-06T03:02:48.391Z,101917.58
2018-04-06T03:05:23.335Z,101911.03
2018-04-06T03:07:58.491Z,101913.36
2018-04-06T03:10:33.966Z,101917.11
2018-04-06T03:13:09.387Z,101914.66
2018-04-06T03:15:44.083Z,101915.58
2018-04-06T03:18:19.122Z,101926.62
2018-04-06T03:20:54.010Z,101927.97
2018-04-06T03:23:29.079Z,101920.42
2018-04-06T03:26:04.119Z,101921.86
2018-04-06T03:28:38.903Z,101923.19
2018-04-06T03:31:14.289Z,101923.66
2018-04-06T03:33:49.159Z,101924.09
2018-04-06T03:36:24.250Z,101923.23
2018-04-06T03:38:59.008Z,101931.25
2018-04-06T03:41:33.426Z,101933.91
2018-04-06T03:44:08.552Z,101932.63
2018-04-06T03:46:43.341Z,101931.66
2018-04-06T03:49:18.432Z,101936.98
2018-04-06T03:51:53.080Z,101933.89
2018-04-06T03:54:28.189Z,101932.52
2018-04-06T03:57:03.146Z,101929.39
2018-04-06T03:59:38.362Z,101922.78
2018-04-06T04:02:13.201Z,101925.75
2018-04-06T04:04:47.952Z,101925.42
2018-04-06T04:07:22.951Z,101926.44
2018-04-06T04:09:58.267Z,101925.14
2018-04-06T04:12:33.242Z,101930.59
2018-04-06T04:15:08.232Z,101941.21
2018-04-06T04:17:43.306Z,101926.54
2018-04-06T04:20:18.364Z,101928.31
2018-04-06T04:22:53.377Z,101928.67
2018-04-06T04:25:28.647Z,101926.04
2018-04-06T04:28:03.710Z,101933.11
2018-04-06T04:30:38.478Z,101943.48
2018-04-06T04:33:13.538Z,101939.94
2018-04-06T04:35:48.582Z,101939.86
2018-04-06T04:38:23.526Z,101929.65
2018-04-06T04:40:58.734Z,101939.05
2018-04-06T04:43:33.599Z,101943.09
2018-04-06T04:46:08.578Z,101933.44
2018-04-06T04:48:43.579Z,101940.64
2018-04-06T04:51:18.745Z,101929.23
2018-04-06T04:53:53.638Z,101929.31
2018-04-06T04:56:28.302Z,101938.27
2018-04-06T04:59:03.770Z,101939.63
2018-04-06T05:01:39.267Z,101949.44
2018-04-06T05:04:13.542Z,101953.50
2018-04-06T05:06:48.742Z,101948.11
2018-04-06T05:09:23.758Z,101955.53
2018-04-06T05:11:58.696Z,101961.16
2018-04-06T05:14:33.609Z,101967.69
2018-04-06T05:17:08.782Z,101967.15
2018-04-06T05:19:43.814Z,101958.22
2018-04-06T05:22:18.970Z,101957.73
2018-04-06T05:24:53.952Z,101966.17
2018-04-06T05:27:28.774Z,101965.64
2018-04-06T05:30:03.220Z,101975.30
2018-04-06T05:32:37.828Z,101970.30
2018-04-06T05:35:12.651Z,101967.09
2018-04-06T05:37:47.390Z,101961.27
2018-04-06T05:40:22.709Z,101958.50
2018-04-06T05:42:57.590Z,101957.59
2018-04-06T05:45:32.589Z,101957.49
2018-04-06T05:48:07.782Z,101962.13
2018-04-06T05:50:42.980Z,101954.80
2018-04-06T05:53:17.850Z,101959.36
2018-04-06T05:55:54.818Z,101957.16
2018-04-06T05:58:29.814Z,101963.58
2018-04-06T06:01:04.287Z,101971.71
2018-04-06T06:03:39.458Z,101975.46
2018-04-06T06:06:14.382Z,101963.64
2018-04-06T06:08:49.478Z,101968.70
2018-04-06T06:11:24.600Z,101973.25
2018-04-06T06:13:59.778Z,101980.75
2018-04-06T06:16:34.783Z,101979.48
2018-04-06T06:19:09.782Z,101984.39
2018-04-06T06:21:44.762Z,101973.41
2018-04-06T06:24:19.855Z,101968.83
2018-04-06T06:26:54.842Z,101978.05
2018-04-06T06:29:29.510Z,101973.51
2018-04-06T06:32:04.700Z,101982.02
2018-04-06T06:34:39.102Z,101979.45
2018-04-06T06:37:14.127Z,101981.95
2018-04-06T06:39:49.698Z,101985.66
2018-04-06T06:42:24.635Z,101981.66
2018-04-06T06:44:59.506Z,101980.27
2018-04-06T06:47:34.074Z,101979.45
2018-04-06T06:50:09.091Z,101980.79
2018-04-06T06:52:43.906Z,101977.77
2018-04-06T06:55:19.315Z,101973.20
2018-04-06T06:57:54.922Z,101969.08
2018-04-06T07:00:30.006Z,101967.84
2018-04-06T07:03:04.374Z,101967.98
2018-04-06T07:05:39.547Z,101966.89
2018-04-06T07:08:14.043Z,101973.36
2018-04-06T07:10:49.147Z,101965.98
2018-04-06T07:13:24.994Z,101961.25
2018-04-06T07:15:59.379Z,101960.70
2018-04-06T07:18:34.738Z,101949.80
2018-04-06T07:21:09.671Z,101950.58
2018-04-06T07:23:44.653Z,101943.86
2018-04-06T07:26:19.922Z,101939.50
2018-04-06T07:28:54.602Z,101943.11
2018-04-06T07:31:29.731Z,101946.16
2018-04-06T07:34:04.886Z,101943.13
2018-04-06T07:36:39.167Z,101935.92
2018-04-06T07:39:14.370Z,101934.64
2018-04-06T07:41:49.824Z,101934.50
2018-04-06T07:44:25.016Z,101930.71
2018-04-06T07:47:00.219Z,101930.02
2018-04-06T07:49:35.223Z,101928.88
2018-04-06T07:52:10.598Z,101931.75
2018-04-06T07:54:45.756Z,101928.53
2018-04-06T07:57:20.827Z,101933.19
2018-04-06T07:59:55.245Z,101930.84
2018-04-06T08:02:30.078Z,101918.83
2018-04-06T08:05:04.797Z,101923.81
2018-04-06T08:07:39.663Z,101921.20
2018-04-06T08:10:14.958Z,101928.81
2018-04-06T08:12:49.470Z,101919.42
2018-04-06T08:15:24.179Z,101914.44
2018-04-06T08:17:59.772Z,101917.48
2018-04-06T08:20:34.767Z,101911.45
2018-04-06T08:23:09.461Z,101909.22
2018-04-06T08:25:44.343Z,101910.86
2018-04-06T08:28:19.451Z,101915.41
2018-04-06T08:30:54.095Z,101913.74
2018-04-06T08:33:30.840Z,101918.70
2018-04-06T08:36:05.291Z,101921.66
2018-04-06T08:38:40.091Z,101918.26
2018-04-06T08:41:15.193Z,101925.40
2018-04-06T08:43:50.194Z,101922.16
2018-04-06T08:46:25.381Z,101928.64
2018-04-06T08:48:59.825Z,101927.94
2018-04-06T08:51:35.121Z,101929.70
2018-04-06T08:54:09.955Z,101921.87
2018-04-06T08:56:45.146Z,101933.62
2018-04-06T08:59:20.270Z,101925.89
2018-04-06T09:01:55.311Z,101927.75
2018-04-06T09:04:30.435Z,101919.39
2018-04-06T09:07:05.170Z,101928.54
2018-04-06T09:09:40.164Z,101933.53
2018-04-06T09:12:15.379Z,101928.07
2018-04-06T09:14:50.491Z,101924.16
2018-04-06T09:17:25.943Z,101929.50
2018-04-06T09:20:00.979Z,101928.66
2018-04-06T09:22:35.777Z,101928.05
2018-04-06T09:25:10.423Z,101940.73
2018-04-06T09:27:45.596Z,101932.14
2018-04-06T09:30:20.563Z,101936.39
2018-04-06T09:32:54.883Z,101932.95
2018-04-06T09:35:30.046Z,101936.67
2018-04-06T09:38:05.158Z,101935.39
2018-04-06T09:40:40.199Z,101935.70
2018-04-06T09:43:15.503Z,101925.59
2018-04-06T09:45:50.278Z,101932.64
2018-04-06T09:48:25.275Z,101927.19
2018-04-06T09:51:00.591Z,101918.97
2018-04-06T09:53:35.397Z,101910.52
2018-04-06T09:56:10.547Z,101908.52
2018-04-06T09:58:45.367Z,101903.31
2018-04-06T10:01:20.663Z,101907.27
2018-04-06T10:03:56.171Z,101896.89
2018-04-06T10:06:31.233Z,101890.87
2018-04-06T10:09:06.707Z,101900.56
2018-04-06T10:11:41.374Z,101889.16
2018-04-06T10:14:16.485Z,101877.61
2018-04-06T10:16:51.764Z,101879.06
2018-04-06T10:19:27.217Z,101880.19
2018-04-06T10:22:02.420Z,101870.91
2018-04-06T10:24:37.222Z,101865.98
2018-04-06T10:27:12.158Z,101864.37
2018-04-06T10:29:47.128Z,101858.31
2018-04-06T10:32:22.358Z,101855.61
2018-04-06T10:34:57.254Z,101855.55
2018-04-06T10:37:31.797Z,101850.14
2018-04-06T10:40:08.504Z,101844.14
2018-04-06T10:42:43.271Z,101848.09
2018-04-06T10:45:18.406Z,101844.47
2018-04-06T10:47:53.310Z,101845.97
2018-04-06T10:50:28.194Z,101840.89
2018-04-06T10:53:03.498Z,101829.83
2018-04-06T10:55:38.721Z,101825.48
2018-04-06T10:58:14.411Z,101834.06
2018-04-06T11:00:49.364Z,101824.92
2018-04-06T11:03:24.105Z,101824.48
2018-04-06T11:05:58.977Z,101825.34
2018-04-06T11:08:34.318Z,101819.47
2018-04-06T11:11:09.531Z,101815.57
2018-04-06T11:13:44.084Z,101805.60
2018-04-06T11:16:19.431Z,101802.95
2018-04-06T11:18:54.779Z,101795.38
2018-04-06T11:21:29.797Z,101795.50
2018-04-06T11:24:05.306Z,101792.06
2018-04-06T11:26:40.296Z,101789.48
2018-04-06T11:29:15.461Z,101790.98
2018-04-06T11:31:50.335Z,101771.69
2018-04-06T11:34:25.606Z,101788.97
2018-04-06T11:37:01.415Z,101783.45
2018-04-06T11:39:36.630Z,101784.34
2018-04-06T11:42:12.314Z,101776.73
2018-04-06T11:44:47.006Z,101776.80
2018-04-06T11:47:21.891Z,101768.95
2018-04-06T11:49:56.699Z,101769.55
2018-04-06T11:52:31.946Z,101758.58
2018-04-06T11:55:06.939Z,101754.88
2018-04-06T11:57:42.006Z,101753.25
2018-04-06T12:00:16.921Z,101743.22
2018-04-06T12:02:52.083Z,101753.03
2018-04-06T12:05:27.519Z,101745.15
2018-04-06T12:08:02.502Z,101745.22
2018-04-06T12:10:37.614Z,101738.86
2018-04-06T12:13:12.782Z,101737.39
2018-04-06T12:15:47.598Z,101735.71
2018-04-06T12:18:22.778Z,101732.45
2018-04-06T12:20:57.675Z,101724.17
2018-04-06T12:23:32.985Z,101715.17
2018-04-06T12:26:08.846Z,101716.88
2018-04-06T12:28:43.943Z,101699.91
2018-04-06T12:31:19.067Z,101706.59
2018-04-06T12:33:54.150Z,101710.16
2018-04-06T12:36:29.075Z,101695.99
2018-04-06T12:39:03.834Z,101697.41
2018-04-06T12:41:39.174Z,101695.16
2018-04-06T12:44:14.054Z,101693.25
2018-04-06T12:46:48.640Z,101689.08
2018-04-06T12:49:23.266Z,101680.81
2018-04-06T12:51:58.588Z,101673.45
2018-04-06T12:54:33.235Z,101675.38
2018-04-06T12:57:09.022Z,101674.05
2018-04-06T12:59:44.226Z,101663.27
2018-04-06T13:02:19.256Z,101662.45
2018-04-06T13:04:54.259Z,101658.34
2018-04-06T13:07:29.059Z,101664.97
2018-04-06T13:10:03.527Z,101660.87
2018-04-06T13:12:38.800Z,101664.66
2018-04-06T13:15:15.527Z,101651.62
2018-04-06T13:17:51.022Z,101649.99
2018-04-06T13:20:25.819Z,101652.88
2018-04-06T13:23:00.747Z,101642.86
2018-04-06T13:25:36.031Z,101637.60
2018-04-06T13:28:11.358Z,101631.25
2018-04-06T13:30:45.894Z,101625.84
2018-04-06T13:33:21.087Z,101618.47
2018-04-06T13:35:55.813Z,101613.61
2018-04-06T13:38:30.843Z,101614.69
2018-04-06T13:41:05.550Z,101605.34
2018-04-06T13:43:40.055Z,101612.75
2018-04-06T13:46:15.002Z,101613.48
2018-04-06T13:48:49.688Z,101608.00
2018-04-06T13:51:24.162Z,101608.30
2018-04-06T13:53:58.818Z,101596.64
2018-04-06T13:56:33.946Z,101598.70
2018-04-06T13:59:08.962Z,101597.27
2018-04-06T14:01:43.387Z,101586.65
2018-04-06T14:04:18.469Z,101591.71
2018-04-06T14:06:53.167Z,101574.84
2018-04-06T14:09:28.171Z,101589.00
2018-04-06T14:12:02.975Z,101575.80
2018-04-06T14:14:38.073Z,101581.76
2018-04-06T14:17:12.855Z,101569.64
2018-04-06T14:19:48.187Z,101567.50
2018-04-06T14:22:23.724Z,101563.05
2018-04-06T14:24:58.223Z,101558.97
2018-04-06T14:27:33.334Z,101557.79
2018-04-06T14:30:09.280Z,101548.89
2018-04-06T14:32:43.922Z,101541.81
2018-04-06T14:35:18.455Z,101538.25
2018-04-06T14:37:53.873Z,101534.09
2018-04-06T14:40:29.147Z,101525.65
2018-04-06T14:43:04.150Z,101519.30
2018-04-06T14:45:39.361Z,101511.83
2018-04-06T14:48:14.822Z,101517.11
2018-04-06T14:50:50.047Z,101505.39
2018-04-06T14:53:25.250Z,101493.92
2018-04-06T14:56:00.075Z,101487.75
2018-04-06T14:58:35.366Z,101486.83
2018-04-06T15:01:10.449Z,101477.66
2018-04-06T15:03:45.059Z,101476.48
2018-04-06T15:06:20.198Z,101471.03
2018-04-06T15:08:55.106Z,101471.27
2018-04-06T15:11:30.043Z,101458.92
2018-04-06T15:14:04.707Z,101460.71
2018-04-06T15:16:39.520Z,101453.80
2018-04-06T15:19:14.787Z,101443.39
2018-04-06T15:21:50.090Z,101439.06
2018-04-06T15:24:24.974Z,101444.92
2018-04-06T15:26:59.660Z,101446.99
2018-04-06T15:29:34.766Z,101437.83
2018-04-06T15:32:09.474Z,101433.59
2018-04-06T15:34:44.550Z,101440.27
2018-04-06T15:37:19.611Z,101432.97
2018-04-06T15:39:55.000Z,101428.89
2018-04-06T15:42:29.606Z,101426.75
2018-04-06T15:45:04.313Z,101419.95
2018-04-06T15:47:40.011Z,101420.19
2018-04-06T15:50:15.266Z,101415.42
2018-04-06T15:52:50.370Z,101423.70
2018-04-06T15:55:33.582Z,101420.55
2018-04-06T15:58:09.357Z,101417.53
2018-04-06T16:00:44.119Z,101398.95
2018-04-06T16:03:18.914Z,101397.34
2018-04-06T16:05:53.354Z,101395.41
2018-04-06T16:08:28.075Z,101384.81
2018-04-06T16:11:03.385Z,101405.27
2018-04-06T16:13:38.372Z,101393.15
2018-04-06T16:16:13.866Z,101387.02
2018-04-06T16:18:48.723Z,101389.72
2018-04-06T16:21:23.402Z,101395.37
2018-04-06T16:23:58.029Z,101383.66
2018-04-06T16:26:33.286Z,101380.98
2018-04-06T16:29:09.303Z,101381.22
2018-04-06T16:31:44.148Z,101378.80
2018-04-06T16:34:18.629Z,101377.91
2018-04-06T16:36:53.675Z,101378.92
2018-04-06T16:39:28.750Z,101382.98
2018-04-06T16:42:04.178Z,101384.80
2018-04-06T16:44:39.152Z,101378.72
2018-04-06T16:47:14.227Z,101373.22
2018-04-06T16:49:49.221Z,101367.22
2018-04-06T16:52:24.461Z,101373.20
2018-04-06T16:54:59.370Z,101374.12
2018-04-06T16:57:34.321Z,101371.45
2018-04-06T17:00:09.639Z,101367.66
2018-04-06T17:02:44.659Z,101375.84
2018-04-06T17:05:19.638Z,101373.28
2018-04-06T17:07:54.678Z,101374.95
2018-04-06T17:10:29.678Z,101376.93
2018-04-06T17:13:04.287Z,101370.09
2018-04-06T17:15:39.632Z,101366.53
2018-04-06T17:18:14.586Z,101372.64
2018-04-06T17:20:49.362Z,101378.01
2018-04-06T17:23:24.613Z,101385.08
2018-04-06T17:25:59.599Z,101379.58
2018-04-06T17:28:34.554Z,101383.96
2018-04-06T17:31:09.697Z,101384.47
2018-04-06T17:33:44.286Z,101383.63
2018-04-06T17:36:19.495Z,101382.34
2018-04-06T17:38:54.995Z,101388.67
2018-04-06T17:41:30.496Z,101391.33
2018-04-06T17:44:05.587Z,101384.95
2018-04-06T17:46:40.603Z,101377.47
2018-04-06T17:49:15.603Z,101383.11
2018-04-06T17:51:50.808Z,101380.19
2018-04-06T17:54:25.672Z,101382.44
2018-04-06T17:57:01.278Z,101383.80
2018-04-06T17:59:36.283Z,101379.22
2018-04-06T18:02:11.435Z,101391.76
2018-04-06T18:04:46.534Z,101388.33
2018-04-06T18:07:21.397Z,101392.42
2018-04-06T18:09:56.719Z,101397.99
2018-04-06T18:12:31.519Z,101401.40
2018-04-06T18:15:06.454Z,101399.41
2018-04-06T18:17:41.618Z,101389.34
2018-04-06T18:20:17.066Z,101393.64
2018-04-06T18:22:51.690Z,101401.95
2018-04-06T18:25:26.787Z,101398.56
2018-04-06T18:28:01.835Z,101399.41
2018-04-06T18:30:36.710Z,101402.82
2018-04-06T18:33:11.895Z,101395.70
2018-04-06T18:35:47.029Z,101406.46
2018-04-06T18:38:22.718Z,101400.55
2018-04-06T18:40:57.556Z,101398.38
2018-04-06T18:43:31.775Z,101406.64
2018-04-06T18:46:06.688Z,101395.53
2018-04-06T18:48:41.740Z,101396.17
2018-04-06T18:51:16.850Z,101400.78
2018-04-06T18:53:51.695Z,101400.66
2018-04-06T18:56:26.414Z,101403.92
2018-04-06T18:59:01.315Z,101399.97
2018-04-06T19:01:36.550Z,101404.17
2018-04-06T19:04:11.906Z,101405.45
2018-04-06T19:06:46.854Z,101400.70
2018-04-06T19:09:21.941Z,101394.92
2018-04-06T19:11:57.414Z,101395.88
2018-04-06T19:14:32.620Z,101397.66
2018-04-06T19:17:07.983Z,101399.95
2018-04-06T19:19:42.643Z,101399.41
2018-04-06T19:22:17.622Z,101393.96
2018-04-06T19:24:52.499Z,101386.78
2018-04-06T19:27:28.025Z,101382.75
2018-04-06T19:30:03.396Z,101381.69
2018-04-06T19:32:38.082Z,101380.84
2018-04-06T19:35:13.698Z,101382.20
2018-04-06T19:37:48.240Z,101379.66
2018-04-06T19:40:23.988Z,101372.66
2018-04-06T19:42:59.830Z,101373.02
2018-04-06T19:48:48.926Z,101360.66
2018-04-06T19:51:23.946Z,101364.69
2018-04-06T19:53:58.902Z,101365.13
2018-04-06T19:56:33.971Z,101359.66
2018-04-06T19:59:10.060Z,101358.91
2018-04-06T20:01:45.177Z,101351.47
2018-04-06T20:04:20.176Z,101353.58
2018-04-06T20:06:54.879Z,101347.91
2018-04-06T20:09:29.854Z,101334.78
2018-04-06T20:12:05.075Z,101331.95
2018-04-06T20:14:39.855Z,101331.08
2018-04-06T20:17:14.989Z,101328.21
2018-04-06T20:19:49.912Z,101325.05
2018-04-06T20:22:25.010Z,101318.23
2018-04-06T20:25:00.051Z,101325.06
2018-04-06T20:27:35.967Z,101321.05
2018-04-06T20:30:11.327Z,101317.01
2018-04-06T20:32:46.782Z,101320.22
2018-04-06T20:35:21.294Z,101313.52
2018-04-06T20:37:55.875Z,101305.58
2018-04-06T20:40:31.217Z,101306.75
2018-04-06T20:43:06.020Z,101305.30
2018-04-06T20:45:41.524Z,101295.46
2018-04-06T20:48:16.807Z,101292.95
2018-04-06T20:50:51.984Z,101294.30
2018-04-06T20:53:26.876Z,101290.94
2018-04-06T20:56:02.103Z,101289.80
2018-04-06T20:58:37.234Z,101286.73
2018-04-06T21:01:12.454Z,101280.41
2018-04-06T21:03:47.440Z,101281.27
2018-04-06T21:06:22.361Z,101272.03
2018-04-06T21:08:57.039Z,101274.49
2018-04-06T21:11:31.881Z,101266.05
2018-04-06T21:14:06.921Z,101259.45
2018-04-06T21:16:41.487Z,101259.67
2018-04-06T21:19:16.409Z,101258.72
2018-04-06T21:21:50.902Z,101256.16
2018-04-06T21:24:26.310Z,101249.49
2018-04-06T21:27:01.069Z,101249.67
2018-04-06T21:29:36.171Z,101241.61
2018-04-06T21:32:11.108Z,101232.77
2018-04-06T21:34:46.236Z,101234.05
2018-04-06T21:37:21.049Z,101224.04
2018-04-06T21:39:56.392Z,101213.14
2018-04-06T21:42:31.194Z,101220.80
2018-04-06T21:45:05.841Z,101212.86
2018-04-06T21:47:40.326Z,101214.88
2018-04-06T21:50:15.082Z,101201.34
2018-04-06T21:52:50.049Z,101208.05
2018-04-06T21:55:25.067Z,101203.59
2018-04-06T21:58:00.231Z,101204.59
2018-04-06T22:00:35.135Z,101207.38
2018-04-06T22:03:10.222Z,101205.70
2018-04-06T22:05:46.447Z,101202.19
2018-04-06T22:08:22.102Z,101200.84
2018-04-06T22:10:56.892Z,101195.42
2018-04-06T22:13:31.221Z,101191.89
2018-04-06T22:16:05.475Z,101188.09
2018-04-06T22:18:40.214Z,101190.11
2018-04-06T22:21:15.166Z,101185.12
2018-04-06T22:23:50.375Z,101188.69
2018-04-06T22:26:25.398Z,101180.88
2018-04-06T22:29:00.499Z,101186.91
2018-04-06T22:31:35.982Z,101180.19
2018-04-06T22:34:10.862Z,101182.48
2018-04-06T22:36:45.843Z,101178.11
2018-04-06T22:39:20.380Z,101181.56
2018-04-06T22:41:55.126Z,101186.77
2018-04-06T22:44:30.126Z,101185.99
2018-04-06T22:47:04.950Z,101193.41
2018-04-06T22:49:40.172Z,101191.02
2018-04-06T22:52:15.416Z,101189.95
2018-04-06T22:54:50.350Z,101188.42
2018-04-06T22:57:25.521Z,101189.42
2018-04-06T23:00:00.647Z,101178.42
2018-04-06T23:02:36.201Z,101180.33
2018-04-06T23:05:11.239Z,101177.81
2018-04-06T23:07:46.033Z,101175.80
2018-04-06T23:10:21.575Z,101177.98
2018-04-06T23:12:56.419Z,101173.02
2018-04-06T23:15:31.461Z,101168.98
2018-04-06T23:18:06.319Z,101173.18
2018-04-06T23:20:40.788Z,101170.92
2018-04-06T23:23:16.511Z,101173.66
2018-04-06T23:25:51.423Z,101170.70
2018-04-06T23:28:26.630Z,101169.60
2018-04-06T23:31:01.088Z,101173.06
2018-04-06T23:33:36.274Z,101167.88
2018-04-06T23:36:10.784Z,101171.63
2018-04-06T23:38:45.578Z,101167.94
2018-04-06T23:41:20.493Z,101167.03
2018-04-06T23:43:55.746Z,101164.88
2018-04-06T23:46:30.689Z,101163.80
2018-04-06T23:49:05.770Z,101154.98
2018-04-06T23:51:40.879Z,101158.61
2018-04-06T23:54:15.730Z,101145.66
2018-04-06T23:56:50.735Z,101139.77
2018-04-06T23:59:25.644Z,101144.57
